Time;durP1;ratioP1;P1;durP2;ratioP2;P2;SDS_P1;SDS_P2;PMS_P1;PMS_P2;Temp;Humidity;BMP_temperature;BMP_pressure;BME280_temperature;BME280_humidity;BME280_pressure;Samples;Min_cycle;Max_cycle;Signal;HPM_P1;HPM_P2
2023/04/28 00:02:00;;;;;;;11.95;9.60;;;;;;;;;;5060170;28;20049;-80
2023/04/28 00:04:27;;;;;;;13.43;9.68;;;;;;;;;;5048946;28;20466;-80
2023/04/28 00:06:53;;;;;;;16.13;9.10;;;;;;;;;;5068839;28;20124;-80
2023/04/28 00:09:19;;;;;;;13.75;9.18;;;;;;;;;;5045208;28;20130;-80
2023/04/28 00:11:45;;;;;;;14.50;9.00;;;;;;;;;;5068168;28;20091;-80
2023/04/28 00:14:11;;;;;;;16.92;9.48;;;;;;;;;;5047528;28;20044;-80
2023/04/28 00:16:37;;;;;;;12.68;8.15;;;;;;;;;;5038141;28;20048;-80
2023/04/28 00:19:03;;;;;;;13.75;8.55;;;;;;;;;;5040496;28;20055;-80
2023/04/28 00:21:30;;;;;;;12.05;8.45;;;;;;;;;;5057402;28;20052;-80
2023/04/28 00:23:56;;;;;;;12.55;8.40;;;;;;;;;;5059782;28;20067;-80
2023/04/28 00:26:23;;;;;;;12.10;8.65;;;;;;;;;;5042440;28;20049;-80
2023/04/28 00:28:49;;;;;;;12.00;8.27;;;;;;;;;;5057912;28;20051;-80
2023/04/28 00:31:15;;;;;;;10.60;7.45;;;;;;;;;;5057490;28;20053;-80
2023/04/28 00:33:41;;;;;;;13.70;7.95;;;;;;;;;;5042402;28;20040;-80
2023/04/28 00:36:07;;;;;;;12.15;7.85;;;;;;;;;;5058481;28;20048;-80
2023/04/28 00:38:33;;;;;;;15.90;8.68;;;;;;;;;;5041577;28;20045;-80
2023/04/28 00:41:00;;;;;;;11.23;7.68;;;;;;;;;;5062883;28;20124;-80
2023/04/28 00:43:26;;;;;;;9.25;6.97;;;;;;;;;;5056524;28;20047;-80
2023/04/28 00:45:52;;;;;;;10.15;7.95;;;;;;;;;;5039357;28;20101;-80
2023/04/28 00:48:18;;;;;;;14.18;8.55;;;;;;;;;;5055094;28;20048;-80
2023/04/28 00:50:45;;;;;;;10.85;7.72;;;;;;;;;;5047443;28;20048;-80
2023/04/28 00:53:12;;;;;;;10.40;7.25;;;;;;;;;;5039922;28;20127;-80
2023/04/28 00:55:38;;;;;;;10.63;7.22;;;;;;;;;;5067844;28;20515;-80
2023/04/28 00:58:07;;;;;;;11.02;6.72;;;;;;;;;;5064763;28;20072;-80
2023/04/28 01:00:34;;;;;;;12.13;7.60;;;;;;;;;;5046555;28;20400;-80
2023/04/28 01:03:00;;;;;;;11.38;7.10;;;;;;;;;;5045390;28;20041;-80
2023/04/28 01:05:26;;;;;;;10.32;7.78;;;;;;;;;;5066971;28;20716;-80
2023/04/28 01:07:53;;;;;;;10.80;8.13;;;;;;;;;;5070661;28;20098;-80
2023/04/28 01:10:19;;;;;;;10.88;7.22;;;;;;;;;;5068123;28;20143;-80
2023/04/28 01:12:45;;;;;;;10.98;8.00;;;;;;;;;;5044206;28;20084;-80
2023/04/28 01:15:18;;;;;;;11.18;7.70;;;;;;;;;;5061474;28;20048;-80
2023/04/28 01:17:45;;;;;;;11.85;7.88;;;;;;;;;;5069993;28;20044;-80
2023/04/28 01:20:11;;;;;;;11.23;7.57;;;;;;;;;;5039464;28;20078;-80
2023/04/28 01:22:37;;;;;;;10.95;7.60;;;;;;;;;;5045822;28;20141;-80
2023/04/28 01:25:03;;;;;;;9.23;7.20;;;;;;;;;;5064394;28;20512;-80
2023/04/28 01:27:29;;;;;;;10.43;7.82;;;;;;;;;;5056753;28;20871;-80
2023/04/28 01:29:57;;;;;;;10.85;7.45;;;;;;;;;;5063493;28;20488;-80
2023/04/28 01:32:23;;;;;;;14.27;7.97;;;;;;;;;;5059473;28;20041;-80
2023/04/28 01:34:49;;;;;;;9.82;8.02;;;;;;;;;;5049479;28;20048;-80
2023/04/28 01:37:15;;;;;;;12.00;7.97;;;;;;;;;;5041263;28;20107;-80
2023/04/28 01:39:41;;;;;;;11.70;8.57;;;;;;;;;;5064628;28;20082;-80
2023/04/28 01:42:07;;;;;;;10.60;8.05;;;;;;;;;;5062776;28;20044;-80
2023/04/28 01:44:33;;;;;;;12.15;7.90;;;;;;;;;;5059721;28;20047;-80
2023/04/28 01:46:59;;;;;;;13.02;8.45;;;;;;;;;;5045357;28;20045;-80
2023/04/28 01:49:26;;;;;;;11.00;7.95;;;;;;;;;;5066421;28;20041;-80
2023/04/28 01:51:52;;;;;;;11.82;8.23;;;;;;;;;;5062040;28;20036;-79
2023/04/28 01:54:18;;;;;;;12.75;7.80;;;;;;;;;;5058128;28;20049;-80
2023/04/28 01:56:44;;;;;;;11.30;7.75;;;;;;;;;;5051172;28;20412;-80
2023/04/28 01:59:10;;;;;;;9.95;7.78;;;;;;;;;;5047504;28;20412;-80
2023/04/28 02:01:36;;;;;;;9.93;7.50;;;;;;;;;;5066232;28;20087;-80
2023/04/28 02:04:02;;;;;;;11.63;7.47;;;;;;;;;;5070051;28;20041;-80
2023/04/28 02:06:28;;;;;;;9.52;7.07;;;;;;;;;;5066722;28;20045;-80
2023/04/28 02:08:54;;;;;;;11.55;7.97;;;;;;;;;;5066974;28;20503;-80
2023/04/28 02:11:20;;;;;;;10.50;7.63;;;;;;;;;;5066928;28;20584;-80
2023/04/28 02:13:46;;;;;;;13.80;8.02;;;;;;;;;;5054802;28;20037;-80
2023/04/28 02:16:12;;;;;;;11.90;7.95;;;;;;;;;;5068672;28;20056;-80
2023/04/28 02:18:38;;;;;;;12.80;8.32;;;;;;;;;;5050450;28;20049;-80
2023/04/28 02:21:11;;;;;;;11.50;8.10;;;;;;;;;;5055944;28;20045;-80
2023/04/28 02:23:37;;;;;;;10.10;7.80;;;;;;;;;;5047790;28;20044;-80
2023/04/28 02:26:03;;;;;;;10.70;7.57;;;;;;;;;;5047828;28;20056;-80
2023/04/28 02:28:29;;;;;;;12.70;8.20;;;;;;;;;;5064753;28;20048;-80
2023/04/28 02:31:08;;;;;;;11.02;8.43;;;;;;;;;;5063579;28;20041;-80
2023/04/28 02:33:35;;;;;;;11.20;8.20;;;;;;;;;;5036938;28;20090;-80
2023/04/28 02:36:01;;;;;;;10.88;7.88;;;;;;;;;;5044194;28;20049;-80
2023/04/28 02:38:28;;;;;;;10.93;8.32;;;;;;;;;;5067548;28;20068;-80
2023/04/28 02:41:01;;;;;;;11.23;8.15;;;;;;;;;;5051114;28;20052;-80
2023/04/28 02:43:27;;;;;;;15.68;9.07;;;;;;;;;;5053302;28;20064;-80
2023/04/28 02:45:54;;;;;;;13.40;8.40;;;;;;;;;;5067113;28;20254;-80
2023/04/28 02:48:20;;;;;;;13.13;9.13;;;;;;;;;;5047975;28;20373;-80
2023/04/28 02:50:46;;;;;;;12.10;8.32;;;;;;;;;;5046727;28;20055;-80
2023/04/28 02:53:12;;;;;;;14.20;8.25;;;;;;;;;;5041790;28;20443;-80
2023/04/28 02:55:38;;;;;;;13.57;8.48;;;;;;;;;;5068799;28;20053;-80
2023/04/28 02:58:04;;;;;;;13.77;8.93;;;;;;;;;;5049369;28;20502;-80
2023/04/28 03:00:30;;;;;;;12.40;8.85;;;;;;;;;;5061224;28;20863;-80
2023/04/28 03:02:57;;;;;;;11.52;8.32;;;;;;;;;;5058409;28;20137;-80
2023/04/28 03:05:23;;;;;;;11.88;8.45;;;;;;;;;;5041280;28;20045;-80
2023/04/28 03:07:49;;;;;;;13.82;8.70;;;;;;;;;;5045798;28;20040;-79
2023/04/28 03:10:15;;;;;;;13.25;9.23;;;;;;;;;;5050738;28;20052;-80
2023/04/28 03:12:41;;;;;;;15.73;10.02;;;;;;;;;;5063366;28;20041;-80
2023/04/28 03:15:07;;;;;;;13.82;9.25;;;;;;;;;;5035981;28;20056;-80
2023/04/28 03:17:35;;;;;;;14.45;9.07;;;;;;;;;;5038914;28;20056;-80
2023/04/28 03:20:01;;;;;;;13.73;9.65;;;;;;;;;;5062430;28;20105;-78
2023/04/28 03:22:28;;;;;;;13.23;9.57;;;;;;;;;;5066378;28;20066;-79
2023/04/28 03:24:54;;;;;;;12.98;9.27;;;;;;;;;;5041173;28;20053;-80
2023/04/28 03:27:20;;;;;;;12.52;10.02;;;;;;;;;;5065253;28;20135;-80
2023/04/28 03:29:46;;;;;;;12.95;9.88;;;;;;;;;;5063026;28;20492;-80
2023/04/28 03:32:12;;;;;;;15.77;9.77;;;;;;;;;;5064843;28;20047;-80
2023/04/28 03:34:38;;;;;;;14.30;10.02;;;;;;;;;;5039977;28;20052;-80
2023/04/28 03:37:05;;;;;;;14.57;9.52;;;;;;;;;;5067305;28;20083;-80
2023/04/28 03:39:31;;;;;;;15.82;10.57;;;;;;;;;;5048558;28;20044;-80
2023/04/28 03:41:57;;;;;;;16.10;10.02;;;;;;;;;;5064105;28;20045;-80
2023/04/28 03:44:23;;;;;;;14.75;9.65;;;;;;;;;;5063761;28;20114;-80
2023/04/28 03:46:49;;;;;;;12.48;9.18;;;;;;;;;;5053937;28;20037;-80
2023/04/28 03:49:15;;;;;;;12.20;8.85;;;;;;;;;;5046691;28;20049;-80
2023/04/28 03:51:42;;;;;;;14.80;9.75;;;;;;;;;;5042177;28;20123;-80
2023/04/28 03:54:08;;;;;;;13.63;10.35;;;;;;;;;;5054907;28;20040;-79
2023/04/28 03:56:34;;;;;;;13.75;9.82;;;;;;;;;;5048662;28;20056;-80
2023/04/28 03:59:00;;;;;;;14.45;10.52;;;;;;;;;;5047551;28;20045;-80
2023/04/28 04:01:26;;;;;;;15.40;10.00;;;;;;;;;;5067320;28;20052;-80
2023/04/28 04:03:52;;;;;;;15.50;9.93;;;;;;;;;;5045682;28;20056;-80
2023/04/28 04:06:18;;;;;;;14.30;10.27;;;;;;;;;;5059249;28;20048;-80
2023/04/28 04:08:45;;;;;;;14.25;9.68;;;;;;;;;;5044898;28;20138;-80
2023/04/28 04:11:11;;;;;;;14.88;10.45;;;;;;;;;;5041627;28;20033;-80
2023/04/28 04:13:37;;;;;;;13.93;10.40;;;;;;;;;;5045771;28;20105;-80
2023/04/28 04:16:03;;;;;;;13.38;9.98;;;;;;;;;;5055093;28;20048;-79
2023/04/28 04:18:29;;;;;;;14.68;9.88;;;;;;;;;;5045332;28;20060;-80
2023/04/28 04:20:56;;;;;;;14.73;9.95;;;;;;;;;;5068443;28;20048;-80
2023/04/28 04:23:22;;;;;;;18.48;10.35;;;;;;;;;;5063632;28;20048;-79
2023/04/28 04:25:48;;;;;;;15.38;9.93;;;;;;;;;;5042975;28;20399;-80
2023/04/28 04:28:15;;;;;;;17.77;10.63;;;;;;;;;;5066209;28;20044;-80
2023/04/28 04:30:41;;;;;;;12.98;9.68;;;;;;;;;;5061945;28;20037;-80
2023/04/28 04:33:07;;;;;;;15.25;9.65;;;;;;;;;;5055015;28;20059;-80
2023/04/28 04:35:33;;;;;;;14.90;10.77;;;;;;;;;;5046223;28;20072;-80
2023/04/28 04:38:00;;;;;;;15.43;10.10;;;;;;;;;;5043725;28;20055;-80
2023/04/28 04:40:26;;;;;;;16.20;10.77;;;;;;;;;;5041207;28;20044;-80
2023/04/28 04:42:52;;;;;;;15.50;10.57;;;;;;;;;;5059853;28;20056;-80
2023/04/28 04:45:18;;;;;;;15.55;10.88;;;;;;;;;;5043597;28;20480;-80
2023/04/28 04:47:44;;;;;;;17.30;9.50;;;;;;;;;;5058922;28;20044;-80
2023/04/28 04:50:11;;;;;;;16.05;10.48;;;;;;;;;;5038411;28;20064;-80
2023/04/28 04:52:37;;;;;;;17.10;11.07;;;;;;;;;;5049131;28;20140;-80
2023/04/28 04:55:04;;;;;;;15.30;10.00;;;;;;;;;;5044856;28;20137;-79
2023/04/28 04:57:30;;;;;;;17.20;11.05;;;;;;;;;;5047890;28;20466;-80
2023/04/28 04:59:56;;;;;;;17.10;10.50;;;;;;;;;;5060075;28;20048;-80
2023/04/28 05:02:22;;;;;;;18.38;10.77;;;;;;;;;;5035986;28;20094;-80
2023/04/28 05:04:48;;;;;;;14.10;10.75;;;;;;;;;;5049059;28;20040;-80
2023/04/28 05:07:14;;;;;;;18.00;10.45;;;;;;;;;;5041989;28;20384;-80
2023/04/28 05:09:40;;;;;;;19.25;10.95;;;;;;;;;;5067246;28;20108;-80
2023/04/28 05:12:07;;;;;;;16.55;10.75;;;;;;;;;;5067428;28;20049;-80
2023/04/28 05:14:33;;;;;;;18.73;11.15;;;;;;;;;;5042132;28;20114;-80
2023/04/28 05:16:59;;;;;;;17.90;10.70;;;;;;;;;;5062247;28;20396;-80
2023/04/28 05:19:25;;;;;;;16.55;10.82;;;;;;;;;;5059505;28;20063;-80
2023/04/28 05:21:53;;;;;;;16.17;11.20;;;;;;;;;;5062994;28;20473;-80
2023/04/28 05:24:22;;;;;;;18.13;11.48;;;;;;;;;;5038668;28;20164;-80
2023/04/28 05:26:48;;;;;;;16.45;10.98;;;;;;;;;;5032624;28;20044;-80
2023/04/28 05:29:14;;;;;;;15.98;10.65;;;;;;;;;;5058016;28;20768;-80
2023/04/28 05:31:40;;;;;;;15.23;11.07;;;;;;;;;;5038146;28;20040;-80
2023/04/28 05:34:06;;;;;;;14.55;11.15;;;;;;;;;;5058820;28;20495;-80
2023/04/28 05:36:32;;;;;;;19.95;11.55;;;;;;;;;;5065514;28;20045;-79
2023/04/28 05:38:59;;;;;;;17.42;11.43;;;;;;;;;;5038568;28;20419;-80
2023/04/28 05:41:25;;;;;;;19.45;11.68;;;;;;;;;;5043774;28;20049;-79
2023/04/28 05:43:51;;;;;;;18.65;11.90;;;;;;;;;;5060025;28;20051;-80
2023/04/28 05:46:17;;;;;;;22.52;12.00;;;;;;;;;;5068862;28;20048;-80
2023/04/28 05:48:43;;;;;;;19.55;12.02;;;;;;;;;;5066725;28;20078;-80
2023/04/28 05:51:09;;;;;;;18.17;11.85;;;;;;;;;;5068249;28;20167;-79
2023/04/28 05:53:35;;;;;;;18.48;12.30;;;;;;;;;;5067902;28;20044;-79
2023/04/28 05:56:02;;;;;;;16.10;11.45;;;;;;;;;;5042569;28;20049;-79
2023/04/28 05:58:28;;;;;;;18.80;11.52;;;;;;;;;;5060051;28;20053;-80
2023/04/28 06:00:54;;;;;;;17.10;11.63;;;;;;;;;;5061932;28;20124;-80
2023/04/28 06:03:20;;;;;;;19.98;12.05;;;;;;;;;;5041061;28;20091;-80
2023/04/28 06:05:46;;;;;;;17.60;11.85;;;;;;;;;;5066767;28;20063;-79
2023/04/28 06:08:12;;;;;;;20.20;12.85;;;;;;;;;;5051208;28;20036;-80
2023/04/28 06:10:38;;;;;;;16.75;11.25;;;;;;;;;;5060331;28;20123;-80
2023/04/28 06:13:05;;;;;;;17.60;11.63;;;;;;;;;;5061483;28;20068;-80
2023/04/28 06:15:31;;;;;;;17.58;12.63;;;;;;;;;;5065081;28;20083;-80
2023/04/28 06:18:00;;;;;;;17.88;11.75;;;;;;;;;;5048044;28;20076;-80
2023/04/28 06:20:27;;;;;;;21.02;13.35;;;;;;;;;;5068914;28;20759;-80
2023/04/28 06:22:53;;;;;;;17.40;12.90;;;;;;;;;;5053682;28;20107;-80
2023/04/28 06:25:19;;;;;;;18.00;11.88;;;;;;;;;;5063131;28;20056;-80
2023/04/28 06:27:45;;;;;;;17.65;12.23;;;;;;;;;;5043938;28;20118;-80
2023/04/28 06:30:18;;;;;;;18.70;13.18;;;;;;;;;;5065465;28;20120;-80
2023/04/28 06:32:44;;;;;;;20.97;12.67;;;;;;;;;;5044046;28;20053;-80
2023/04/28 06:35:10;;;;;;;18.52;12.82;;;;;;;;;;5065043;28;20036;-80
2023/04/28 06:37:36;;;;;;;19.85;12.98;;;;;;;;;;5067143;28;20033;-80
2023/04/28 06:40:02;;;;;;;17.73;11.73;;;;;;;;;;5068015;28;20043;-80
2023/04/28 06:42:28;;;;;;;21.35;12.57;;;;;;;;;;5040752;28;20041;-80
2023/04/28 06:44:54;;;;;;;17.98;12.60;;;;;;;;;;5066101;28;20086;-81
2023/04/28 06:47:20;;;;;;;19.77;13.30;;;;;;;;;;5061232;28;20082;-81
2023/04/28 06:49:52;;;;;;;19.48;12.80;;;;;;;;;;5066586;28;20555;-81
2023/04/28 06:52:20;;;;;;;20.77;13.68;;;;;;;;;;5053741;28;20044;-80
2023/04/28 06:54:47;;;;;;;22.30;14.02;;;;;;;;;;5057116;28;20131;-81
2023/04/28 06:57:13;;;;;;;21.55;13.23;;;;;;;;;;5047896;28;20072;-80
2023/04/28 06:59:39;;;;;;;20.63;13.25;;;;;;;;;;5045600;28;20048;-80
2023/04/28 07:02:05;;;;;;;21.23;14.15;;;;;;;;;;5057107;28;20041;-80
2023/04/28 07:04:31;;;;;;;19.10;13.38;;;;;;;;;;5069041;28;20095;-80
2023/04/28 07:06:57;;;;;;;21.35;13.38;;;;;;;;;;5048715;28;20472;-80
2023/04/28 07:09:23;;;;;;;20.92;13.85;;;;;;;;;;5041978;28;20053;-80
2023/04/28 07:11:49;;;;;;;23.23;14.02;;;;;;;;;;5068147;28;20086;-80
2023/04/28 07:14:15;;;;;;;18.73;12.57;;;;;;;;;;5058827;28;20443;-80
2023/04/28 07:16:41;;;;;;;20.33;13.82;;;;;;;;;;5060552;28;20051;-80
2023/04/28 07:19:07;;;;;;;20.02;13.93;;;;;;;;;;5057637;28;20075;-80
2023/04/28 07:21:33;;;;;;;19.65;13.65;;;;;;;;;;5067018;28;20036;-80
2023/04/28 07:23:59;;;;;;;19.40;13.45;;;;;;;;;;5066414;28;20131;-80
2023/04/28 07:26:25;;;;;;;19.60;13.77;;;;;;;;;;5049868;28;20048;-80
2023/04/28 07:28:51;;;;;;;23.13;13.85;;;;;;;;;;5045898;28;20049;-80
2023/04/28 07:31:17;;;;;;;19.83;13.68;;;;;;;;;;5063786;28;20113;-80
2023/04/28 07:33:43;;;;;;;20.25;13.57;;;;;;;;;;5059652;28;20116;-80
2023/04/28 07:36:10;;;;;;;20.42;14.23;;;;;;;;;;5059495;28;20045;-80
2023/04/28 07:38:36;;;;;;;20.67;13.60;;;;;;;;;;5048600;28;20040;-80
2023/04/28 07:41:03;;;;;;;17.27;12.73;;;;;;;;;;5065555;28;20070;-80
2023/04/28 07:43:29;;;;;;;20.63;14.50;;;;;;;;;;5057201;28;20101;-80
2023/04/28 07:45:55;;;;;;;18.00;12.75;;;;;;;;;;5049042;28;20076;-80
2023/04/28 07:48:21;;;;;;;19.90;14.23;;;;;;;;;;5064467;28;20089;-80
2023/04/28 07:50:47;;;;;;;19.95;12.88;;;;;;;;;;5045804;28;20060;-80
2023/04/28 07:53:13;;;;;;;19.77;13.10;;;;;;;;;;5049614;28;20044;-80
2023/04/28 07:55:42;;;;;;;20.83;15.05;;;;;;;;;;5067447;28;20501;-80
2023/04/28 07:58:08;;;;;;;22.15;13.55;;;;;;;;;;5045974;28;20049;-80
2023/04/28 08:00:34;;;;;;;19.27;13.55;;;;;;;;;;5050327;28;20056;-80
2023/04/28 08:03:00;;;;;;;19.75;13.27;;;;;;;;;;5033417;28;20049;-80
2023/04/28 08:05:26;;;;;;;21.40;13.43;;;;;;;;;;5042845;28;20109;-80
2023/04/28 08:07:52;;;;;;;22.00;14.07;;;;;;;;;;5068290;28;20056;-80
2023/04/28 08:10:19;;;;;;;19.70;13.38;;;;;;;;;;5066280;28;20064;-80
2023/04/28 08:12:46;;;;;;;19.90;13.25;;;;;;;;;;5067550;28;20157;-80
2023/04/28 08:15:12;;;;;;;20.02;13.30;;;;;;;;;;5049836;28;20083;-80
2023/04/28 08:17:38;;;;;;;18.83;13.43;;;;;;;;;;5047620;28;20497;-80
2023/04/28 08:20:08;;;;;;;17.70;13.20;;;;;;;;;;5049569;28;20048;-80
2023/04/28 08:22:34;;;;;;;22.35;13.23;;;;;;;;;;5063606;28;20319;-80
2023/04/28 08:25:00;;;;;;;20.05;13.40;;;;;;;;;;5063661;28;20044;-80
2023/04/28 08:27:26;;;;;;;21.25;14.20;;;;;;;;;;5048516;28;20107;-80
2023/04/28 08:29:52;;;;;;;22.60;14.48;;;;;;;;;;5041284;28;20040;-80
2023/04/28 08:32:18;;;;;;;20.20;13.93;;;;;;;;;;5060481;28;20075;-80
2023/04/28 08:34:44;;;;;;;20.02;13.63;;;;;;;;;;5061387;28;20071;-81
2023/04/28 08:37:10;;;;;;;20.80;13.73;;;;;;;;;;5067390;28;20170;-80
2023/04/28 08:39:36;;;;;;;17.77;13.45;;;;;;;;;;5058384;28;20533;-80
2023/04/28 08:42:06;;;;;;;19.50;13.85;;;;;;;;;;5058649;28;20041;-80
2023/04/28 08:44:38;;;;;;;20.92;14.18;;;;;;;;;;5061720;28;20045;-80
2023/04/28 08:47:12;;;;;;;20.70;13.95;;;;;;;;;;5061551;28;20052;-80
2023/04/28 08:49:38;;;;;;;18.20;13.40;;;;;;;;;;5048037;28;20041;-80
2023/04/28 08:52:09;;;;;;;20.67;13.30;;;;;;;;;;5050706;28;20080;-80
2023/04/28 08:54:35;;;;;;;22.25;13.50;;;;;;;;;;5050973;28;20083;-80
2023/04/28 08:57:03;;;;;;;17.67;13.50;;;;;;;;;;5048345;28;20139;-80
2023/04/28 08:59:30;;;;;;;19.95;13.60;;;;;;;;;;5061525;28;20135;-80
2023/04/28 09:01:56;;;;;;;19.17;13.65;;;;;;;;;;5063248;28;20044;-80
2023/04/28 09:04:22;;;;;;;20.92;14.10;;;;;;;;;;5046342;28;20381;-80
2023/04/28 09:06:48;;;;;;;18.92;13.55;;;;;;;;;;5061437;28;20041;-80
2023/04/28 09:09:18;;;;;;;18.52;13.13;;;;;;;;;;5059415;28;20045;-80
2023/04/28 09:11:51;;;;;;;18.67;12.90;;;;;;;;;;5057512;28;20091;-80
2023/04/28 09:14:17;;;;;;;17.50;12.43;;;;;;;;;;5044475;28;20044;-80
2023/04/28 09:16:43;;;;;;;20.92;13.25;;;;;;;;;;5042555;28;20115;-80
2023/04/28 09:19:09;;;;;;;20.13;13.52;;;;;;;;;;5065641;28;20076;-80
2023/04/28 09:21:55;;;;;;;20.02;14.13;;;;;;;;;;5042872;28;20044;-80
2023/04/28 09:24:41;;;;;;;19.75;13.93;;;;;;;;;;5069873;28;20052;-79
2023/04/28 09:27:10;;;;;;;20.42;15.48;;;;;;;;;;5050708;28;20480;-80
2023/04/28 09:29:37;;;;;;;22.38;13.98;;;;;;;;;;5052361;28;20048;-80
2023/04/28 09:32:20;;;;;;;20.08;15.25;;;;;;;;;;5051988;28;20044;-80
2023/04/28 09:34:50;;;;;;;18.35;14.45;;;;;;;;;;5057432;28;20048;-80
2023/04/28 09:37:20;;;;;;;20.55;14.18;;;;;;;;;;5069121;28;20055;-80
2023/04/28 09:39:49;;;;;;;21.40;15.05;;;;;;;;;;5047780;28;20045;-80
2023/04/28 09:42:45;;;;;;;21.48;14.82;;;;;;;;;;5062289;28;20056;-80
2023/04/28 09:45:12;;;;;;;20.65;14.23;;;;;;;;;;5053846;28;20056;-80
2023/04/28 09:47:46;;;;;;;18.67;14.18;;;;;;;;;;5044854;28;20082;-80
2023/04/28 09:50:13;;;;;;;22.48;15.38;;;;;;;;;;5041853;28;20048;-82
2023/04/28 09:52:44;;;;;;;19.08;14.05;;;;;;;;;;5051232;28;20169;-78
2023/04/28 09:55:11;;;;;;;20.20;14.95;;;;;;;;;;5066980;28;20098;-81
2023/04/28 09:57:37;;;;;;;19.80;15.00;;;;;;;;;;5066024;28;20084;-80
2023/04/28 10:00:05;;;;;;;21.45;15.70;;;;;;;;;;5049459;28;20063;-80
2023/04/28 10:02:31;;;;;;;22.05;15.55;;;;;;;;;;5044556;28;20151;-77
2023/04/28 10:04:57;;;;;;;28.98;18.67;;;;;;;;;;5066695;28;20045;-77
2023/04/28 10:07:23;;;;;;;20.85;14.32;;;;;;;;;;5061939;28;20049;-78
2023/04/28 10:09:50;;;;;;;22.83;15.35;;;;;;;;;;5048373;28;20057;-78
2023/04/28 10:12:17;;;;;;;21.20;14.40;;;;;;;;;;5050350;28;20522;-78
2023/04/28 10:14:43;;;;;;;20.67;14.88;;;;;;;;;;5062442;28;20493;-78
2023/04/28 10:17:16;;;;;;;21.45;15.50;;;;;;;;;;5062978;28;20048;-77
2023/04/28 10:19:46;;;;;;;19.97;14.70;;;;;;;;;;5048182;28;20444;-77
2023/04/28 10:22:34;;;;;;;22.88;16.80;;;;;;;;;;5042440;28;20491;-78
2023/04/28 10:25:06;;;;;;;21.35;15.88;;;;;;;;;;5041692;28;20040;-76
2023/04/28 10:27:32;;;;;;;22.98;16.00;;;;;;;;;;5068477;28;20507;-78
2023/04/28 10:30:16;;;;;;;23.13;16.92;;;;;;;;;;5065051;28;20053;-79
2023/04/28 10:32:42;;;;;;;22.27;15.63;;;;;;;;;;5062567;28;20399;-78
2023/04/28 10:35:20;;;;;;;23.90;15.35;;;;;;;;;;5061941;28;20045;-77
2023/04/28 10:38:04;;;;;;;21.08;15.68;;;;;;;;;;5042865;28;20064;-80
2023/04/28 10:40:31;;;;;;;21.90;16.65;;;;;;;;;;5058342;28;20111;-79
2023/04/28 10:42:57;;;;;;;20.80;15.88;;;;;;;;;;5062537;28;20099;-79
2023/04/28 10:45:41;;;;;;;20.80;15.85;;;;;;;;;;5059027;28;20804;-79
2023/04/28 10:48:07;;;;;;;17.50;14.40;;;;;;;;;;5047731;28;20033;-78
2023/04/28 10:50:36;;;;;;;22.83;16.08;;;;;;;;;;5042830;28;20033;-79
2023/04/28 10:53:03;;;;;;;22.73;15.75;;;;;;;;;;5053052;28;20095;-79
2023/04/28 10:55:35;;;;;;;25.95;16.85;;;;;;;;;;5060858;28;20052;-79
2023/04/28 10:58:17;;;;;;;21.67;16.33;;;;;;;;;;5044975;28;20044;-79
2023/04/28 11:00:46;;;;;;;22.10;16.27;;;;;;;;;;5059595;28;20681;-79
2023/04/28 11:03:31;;;;;;;20.90;16.75;;;;;;;;;;5064127;28;20491;-79
2023/04/28 11:06:19;;;;;;;23.05;16.98;;;;;;;;;;5055154;28;20040;-79
2023/04/28 11:08:44;;;;;;;24.75;17.63;;;;;;;;;;5049452;28;20503;-79
2023/04/28 11:11:15;;;;;;;24.77;18.63;;;;;;;;;;5061051;28;20068;-79
2023/04/28 11:13:41;;;;;;;23.88;17.98;;;;;;;;;;5040446;28;20041;-79
2023/04/28 11:16:07;;;;;;;22.02;17.48;;;;;;;;;;5058674;28;20131;-79
2023/04/28 11:18:57;;;;;;;23.20;19.23;;;;;;;;;;5067001;28;20443;-78
2023/04/28 11:21:24;;;;;;;22.52;16.85;;;;;;;;;;5043785;28;20056;-78
2023/04/28 11:23:51;;;;;;;24.92;17.23;;;;;;;;;;5037552;28;20102;-78
2023/04/28 11:26:18;;;;;;;22.52;16.98;;;;;;;;;;5060704;28;20048;-79
2023/04/28 11:28:48;;;;;;;23.85;18.02;;;;;;;;;;5038650;28;20044;-79
2023/04/28 11:31:21;;;;;;;23.98;17.52;;;;;;;;;;5063456;28;20122;-79
2023/04/28 11:33:49;;;;;;;20.83;16.88;;;;;;;;;;5057641;28;20041;-79
2023/04/28 11:36:25;;;;;;;24.70;16.98;;;;;;;;;;5059533;28;20511;-79
2023/04/28 11:38:51;;;;;;;20.60;16.77;;;;;;;;;;5060642;28;20527;-80
2023/04/28 11:41:17;;;;;;;27.35;16.13;;;;;;;;;;5037184;28;20098;-79
2023/04/28 11:43:43;;;;;;;23.77;16.67;;;;;;;;;;5041412;28;20037;-79
2023/04/28 11:46:09;;;;;;;23.50;17.40;;;;;;;;;;5037716;28;20132;-79
2023/04/28 11:48:36;;;;;;;21.85;16.98;;;;;;;;;;5061174;28;20121;-79
2023/04/28 11:51:02;;;;;;;20.45;17.15;;;;;;;;;;5063861;28;20093;-79
2023/04/28 11:53:42;;;;;;;21.55;17.02;;;;;;;;;;5037056;28;20044;-78
2023/04/28 11:56:08;;;;;;;20.13;16.02;;;;;;;;;;5059462;28;20102;-78
2023/04/28 11:58:34;;;;;;;20.23;16.25;;;;;;;;;;5060957;28;20721;-79
2023/04/28 12:01:10;;;;;;;22.10;17.33;;;;;;;;;;5057138;28;20032;-78
2023/04/28 12:03:43;;;;;;;21.35;17.95;;;;;;;;;;5061289;28;20041;-78
2023/04/28 12:06:09;;;;;;;22.30;17.77;;;;;;;;;;5040891;28;20445;-79
2023/04/28 12:08:35;;;;;;;23.63;17.88;;;;;;;;;;5043043;28;20388;-78
2023/04/28 12:11:09;;;;;;;21.00;16.85;;;;;;;;;;5044584;28;20044;-78
2023/04/28 12:13:37;;;;;;;19.98;16.25;;;;;;;;;;5067343;28;20056;-78
2023/04/28 12:16:04;;;;;;;23.63;18.33;;;;;;;;;;5043856;28;20110;-78
2023/04/28 12:18:31;;;;;;;22.42;17.58;;;;;;;;;;5058231;28;20052;-78
2023/04/28 12:20:57;;;;;;;22.75;18.00;;;;;;;;;;5064839;28;20048;-78
2023/04/28 12:23:33;;;;;;;24.00;18.73;;;;;;;;;;5039018;28;20142;-78
2023/04/28 12:25:59;;;;;;;25.02;18.30;;;;;;;;;;5042138;28;20043;-78
2023/04/28 12:28:41;;;;;;;25.40;18.75;;;;;;;;;;5042528;28;20052;-78
2023/04/28 12:31:07;;;;;;;20.13;17.13;;;;;;;;;;5035505;28;20071;-78
2023/04/28 12:33:36;;;;;;;22.05;16.73;;;;;;;;;;5067528;28;20037;-77
2023/04/28 12:36:03;;;;;;;23.15;17.42;;;;;;;;;;5061330;28;20413;-79
2023/04/28 12:38:29;;;;;;;21.58;16.70;;;;;;;;;;5063492;28;20047;-80
2023/04/28 12:40:56;;;;;;;21.42;16.33;;;;;;;;;;5042342;28;20040;-80
2023/04/28 12:43:23;;;;;;;22.77;17.58;;;;;;;;;;5043079;28;20093;-80
2023/04/28 12:45:53;;;;;;;21.45;17.75;;;;;;;;;;5038644;28;20044;-80
2023/04/28 12:48:19;;;;;;;22.30;17.60;;;;;;;;;;5038358;28;20041;-80
2023/04/28 12:50:45;;;;;;;21.17;17.17;;;;;;;;;;5069373;28;20041;-79
2023/04/28 12:53:11;;;;;;;21.80;17.55;;;;;;;;;;5070299;28;20040;-79
2023/04/28 12:55:39;;;;;;;24.00;18.52;;;;;;;;;;5054689;28;20053;-80
2023/04/28 12:58:05;;;;;;;19.70;16.15;;;;;;;;;;5066233;28;20044;-80
2023/04/28 13:00:31;;;;;;;24.48;19.52;;;;;;;;;;5050729;28;20117;-80
2023/04/28 13:02:57;;;;;;;22.40;17.58;;;;;;;;;;5066101;28;20067;-80
2023/04/28 13:05:23;;;;;;;21.52;17.05;;;;;;;;;;5045306;28;20136;-80
2023/04/28 13:07:50;;;;;;;22.88;18.02;;;;;;;;;;5049422;28;20094;-80
2023/04/28 13:10:17;;;;;;;21.00;17.33;;;;;;;;;;5069044;28;20051;-80
2023/04/28 13:12:43;;;;;;;20.35;17.33;;;;;;;;;;5055248;28;20036;-80
2023/04/28 13:15:10;;;;;;;21.35;17.77;;;;;;;;;;5068847;28;20127;-80
2023/04/28 13:17:36;;;;;;;19.40;16.17;;;;;;;;;;5070555;28;20040;-79
2023/04/28 13:20:04;;;;;;;21.45;17.38;;;;;;;;;;5052706;28;20040;-80
2023/04/28 13:22:30;;;;;;;21.20;18.25;;;;;;;;;;5050282;28;20044;-79
2023/04/28 13:24:56;;;;;;;18.70;16.45;;;;;;;;;;5046737;28;20544;-80
2023/04/28 13:27:22;;;;;;;19.20;16.92;;;;;;;;;;5060628;28;20075;-80
2023/04/28 13:29:48;;;;;;;21.90;18.25;;;;;;;;;;5066105;28;20044;-80
2023/04/28 13:32:14;;;;;;;22.90;18.98;;;;;;;;;;5057957;28;20045;-80
2023/04/28 13:34:40;;;;;;;20.30;16.50;;;;;;;;;;5067163;28;20426;-81
2023/04/28 13:37:06;;;;;;;20.73;17.95;;;;;;;;;;5063814;28;20082;-80
2023/04/28 13:39:32;;;;;;;18.98;16.45;;;;;;;;;;5050169;28;20069;-80
2023/04/28 13:41:59;;;;;;;20.40;16.92;;;;;;;;;;5072829;28;20041;-80
2023/04/28 13:44:25;;;;;;;19.42;16.60;;;;;;;;;;5066284;28;20079;-80
2023/04/28 13:46:52;;;;;;;20.35;16.27;;;;;;;;;;5065391;28;20036;-80
2023/04/28 13:49:18;;;;;;;19.75;16.52;;;;;;;;;;5039260;28;20067;-79
2023/04/28 13:51:44;;;;;;;20.55;18.33;;;;;;;;;;5053791;28;20096;-80
2023/04/28 13:54:10;;;;;;;19.95;17.67;;;;;;;;;;5061214;28;20072;-80
2023/04/28 13:56:37;;;;;;;23.15;17.85;;;;;;;;;;5070384;28;20056;-79
2023/04/28 13:59:03;;;;;;;22.25;18.27;;;;;;;;;;5053362;28;20051;-79
2023/04/28 14:01:29;;;;;;;20.33;17.65;;;;;;;;;;5042595;28;20057;-79
2023/04/28 14:03:55;;;;;;;21.80;19.08;;;;;;;;;;5034758;28;20103;-79
2023/04/28 14:06:21;;;;;;;19.25;17.10;;;;;;;;;;5072715;28;20232;-79
2023/04/28 14:08:47;;;;;;;19.25;17.15;;;;;;;;;;5072075;28;20047;-79
2023/04/28 14:11:13;;;;;;;20.38;17.88;;;;;;;;;;5073320;28;20206;-79
2023/04/28 14:13:39;;;;;;;20.70;17.02;;;;;;;;;;5055799;28;20052;-79
2023/04/28 14:16:06;;;;;;;20.95;18.08;;;;;;;;;;5054963;28;20111;-79
2023/04/28 14:18:32;;;;;;;20.40;16.40;;;;;;;;;;5054770;28;20040;-79
2023/04/28 14:20:59;;;;;;;18.73;16.73;;;;;;;;;;5050941;28;20456;-79
2023/04/28 14:23:25;;;;;;;19.58;16.63;;;;;;;;;;5047670;28;20197;-80